createdAt,value
2019-03-16T00:01:30.867Z,0.10
2019-03-16T00:03:58.936Z,0.10
2019-03-16T00:06:27.021Z,0.10
2019-03-16T00:08:55.054Z,0.10
2019-03-16T00:11:23.095Z,0.10
2019-03-16T00:13:51.151Z,0.10
2019-03-16T00:16:19.297Z,0.10
2019-03-16T00:18:47.386Z,0.10
2019-03-16T00:21:15.426Z,0.10
2019-03-16T00:23:43.552Z,0.00
2019-03-16T00:26:11.611Z,0.10
2019-03-16T00:28:39.654Z,0.10
2019-03-16T00:31:07.703Z,0.20
2019-03-16T00:33:37.008Z,0.10
2019-03-16T00:36:05.073Z,0.57
2019-03-16T00:38:33.131Z,0.33
2019-03-16T00:41:01.166Z,0.20
2019-03-16T00:43:29.204Z,0.00
2019-03-16T00:45:57.292Z,0.00
2019-03-16T00:48:25.321Z,0.10
2019-03-16T00:50:53.389Z,0.07
2019-03-16T00:53:21.709Z,0.10
2019-03-16T00:55:49.754Z,0.20
2019-03-16T00:58:17.825Z,0.20
2019-03-16T01:00:45.879Z,0.30
2019-03-16T01:03:13.935Z,0.30
2019-03-16T01:05:41.988Z,0.10
2019-03-16T01:08:10.034Z,0.30
2019-03-16T01:10:38.086Z,0.30
2019-03-16T01:13:06.155Z,0.20
2019-03-16T01:15:34.254Z,0.20
2019-03-16T01:18:02.650Z,0.20
2019-03-16T01:20:30.757Z,0.30
2019-03-16T01:22:58.848Z,0.40
2019-03-16T01:25:26.926Z,0.33
2019-03-16T01:27:54.983Z,0.27
2019-03-16T01:30:23.018Z,0.20
2019-03-16T01:32:51.081Z,0.50
2019-03-16T01:35:19.134Z,0.27
2019-03-16T01:37:47.175Z,0.40
2019-03-16T01:40:15.218Z,0.47
2019-03-16T01:42:43.270Z,0.37
2019-03-16T01:45:11.386Z,0.60
2019-03-16T01:47:39.426Z,0.40
2019-03-16T01:50:08.574Z,0.47
2019-03-16T01:52:36.613Z,0.37
2019-03-16T01:55:05.438Z,0.40
2019-03-16T01:57:33.499Z,0.33
2019-03-16T02:00:01.539Z,0.50
2019-03-16T02:02:29.654Z,0.50
2019-03-16T02:04:57.710Z,0.40
2019-03-16T02:07:25.754Z,0.40
2019-03-16T02:09:53.795Z,0.50
2019-03-16T02:12:21.862Z,0.57
2019-03-16T02:14:49.893Z,0.40
2019-03-16T02:17:17.942Z,0.43
2019-03-16T02:19:46.001Z,0.40
2019-03-16T02:22:14.058Z,0.20
2019-03-16T02:24:42.086Z,0.57
2019-03-16T02:27:10.173Z,0.87
2019-03-16T02:29:38.209Z,0.37
2019-03-16T02:32:06.255Z,0.50
2019-03-16T02:34:34.394Z,0.53
2019-03-16T02:37:02.454Z,0.40
2019-03-16T02:39:30.487Z,0.70
2019-03-16T02:41:58.529Z,0.50
2019-03-16T02:44:26.574Z,0.60
2019-03-16T02:46:54.637Z,0.60
2019-03-16T02:49:22.671Z,0.90
2019-03-16T02:51:51.744Z,0.80
2019-03-16T02:54:19.790Z,0.70
2019-03-16T02:56:47.832Z,0.50
2019-03-16T02:59:15.866Z,0.80
2019-03-16T03:01:43.922Z,0.67
2019-03-16T03:04:11.958Z,0.67
2019-03-16T03:06:40.002Z,0.70
2019-03-16T03:09:08.218Z,0.60
2019-03-16T03:11:36.329Z,0.60
2019-03-16T03:14:04.387Z,0.67
2019-03-16T03:16:32.475Z,0.63
2019-03-16T03:19:00.517Z,0.70
2019-03-16T03:21:28.558Z,0.50
2019-03-16T03:23:56.636Z,0.60
2019-03-16T03:26:24.723Z,0.90
2019-03-16T03:28:52.807Z,0.50
2019-03-16T03:31:20.896Z,0.67
2019-03-16T03:33:59.928Z,0.77
2019-03-16T03:36:18.702Z,0.60
2019-03-16T03:38:46.742Z,0.40
2019-03-16T03:41:14.783Z,0.40
2019-03-16T03:43:42.842Z,0.53
2019-03-16T03:46:10.918Z,0.40
2019-03-16T03:48:38.958Z,0.77
2019-03-16T03:51:07.003Z,0.40
2019-03-16T03:53:35.067Z,0.70
2019-03-16T03:56:03.103Z,0.50
2019-03-16T03:58:31.166Z,0.50
2019-03-16T04:00:59.223Z,0.40
2019-03-16T04:03:27.251Z,0.50
2019-03-16T04:05:55.290Z,0.30
2019-03-16T04:08:23.353Z,0.47
2019-03-16T04:10:51.447Z,0.53
2019-03-16T04:13:19.507Z,0.60
2019-03-16T04:15:47.559Z,1.10
2019-03-16T04:18:15.600Z,0.67
2019-03-16T04:20:43.686Z,0.90
2019-03-16T04:23:11.762Z,0.77
2019-03-16T04:25:39.799Z,0.80
2019-03-16T04:28:07.879Z,0.90
2019-03-16T04:30:35.939Z,0.80
2019-03-16T04:33:03.983Z,0.90
2019-03-16T04:35:32.034Z,0.93
2019-03-16T04:38:00.091Z,1.13
2019-03-16T04:40:28.132Z,1.30
2019-03-16T04:42:56.181Z,1.40
2019-03-16T04:45:24.319Z,1.37
2019-03-16T04:47:52.357Z,1.20
2019-03-16T04:50:20.401Z,1.30
2019-03-16T04:52:50.999Z,1.10
2019-03-16T04:55:18.203Z,1.47
2019-03-16T04:57:46.258Z,1.30
2019-03-16T05:00:14.566Z,1.57
2019-03-16T05:02:42.597Z,1.50
2019-03-16T05:05:10.655Z,1.50
2019-03-16T05:07:38.694Z,1.50
2019-03-16T05:10:08.088Z,1.47
2019-03-16T05:12:36.118Z,1.40
2019-03-16T05:15:05.742Z,1.50
2019-03-16T05:17:33.785Z,0.90
2019-03-16T05:20:01.825Z,0.90
2019-03-16T05:22:29.922Z,1.00
2019-03-16T05:24:57.970Z,1.13
2019-03-16T05:27:26.096Z,1.00
2019-03-16T05:29:54.133Z,1.23
2019-03-16T05:32:22.193Z,1.47
2019-03-16T05:34:56.398Z,1.50
2019-03-16T05:37:20.002Z,1.50
2019-03-16T05:39:48.054Z,1.47
2019-03-16T05:42:16.119Z,1.30
2019-03-16T05:44:44.162Z,1.57
2019-03-16T05:47:12.221Z,1.30
2019-03-16T05:49:40.265Z,1.73
2019-03-16T05:52:08.403Z,1.53
2019-03-16T05:54:36.519Z,1.80
2019-03-16T05:57:04.774Z,1.60
2019-03-16T05:59:32.798Z,1.60
2019-03-16T06:02:00.914Z,2.00
2019-03-16T06:04:29.071Z,2.03
2019-03-16T06:06:57.186Z,2.93
2019-03-16T06:09:25.257Z,3.27
2019-03-16T06:11:53.278Z,3.23
2019-03-16T06:14:21.333Z,3.80
2019-03-16T06:16:49.409Z,3.73
2019-03-16T06:19:17.487Z,3.97
2019-03-16T06:21:45.574Z,4.40
2019-03-16T06:24:13.610Z,4.37
2019-03-16T06:26:41.646Z,4.57
2019-03-16T06:29:09.702Z,5.00
2019-03-16T06:31:37.743Z,4.80
2019-03-16T06:34:05.796Z,5.00
2019-03-16T06:36:33.838Z,5.47
2019-03-16T06:39:01.883Z,5.37
2019-03-16T06:41:29.940Z,4.87
2019-03-16T06:43:57.973Z,4.53
2019-03-16T06:46:26.034Z,5.77
2019-03-16T06:48:54.114Z,1.57
2019-03-16T06:51:22.846Z,0.60
2019-03-16T06:53:50.903Z,0.30
2019-03-16T06:56:18.962Z,0.40
2019-03-16T06:58:47.043Z,0.10
2019-03-16T07:01:15.077Z,0.10
2019-03-16T07:03:43.134Z,0.10
2019-03-16T07:06:11.201Z,0.10
2019-03-16T07:08:39.249Z,0.43
2019-03-16T07:11:07.315Z,0.23
2019-03-16T07:13:35.351Z,0.20
2019-03-16T07:16:03.442Z,0.20
2019-03-16T07:18:31.511Z,0.30
2019-03-16T07:20:59.546Z,0.30
2019-03-16T07:23:27.739Z,0.20
2019-03-16T07:25:55.798Z,0.20
2019-03-16T07:28:23.870Z,0.23
2019-03-16T07:30:51.914Z,0.47
2019-03-16T07:33:19.954Z,0.20
2019-03-16T07:35:47.993Z,0.30
2019-03-16T07:38:16.037Z,0.30
2019-03-16T07:40:44.097Z,0.30
2019-03-16T07:43:12.177Z,0.40
2019-03-16T07:45:40.213Z,0.40
2019-03-16T07:48:08.268Z,0.40
2019-03-16T07:50:36.313Z,1.90
2019-03-16T07:53:04.366Z,0.80
2019-03-16T07:55:32.405Z,0.60
2019-03-16T07:58:00.438Z,0.93
2019-03-16T08:00:28.479Z,0.90
2019-03-16T08:02:56.538Z,1.33
2019-03-16T08:05:24.573Z,1.30
2019-03-16T08:07:52.654Z,0.90
2019-03-16T08:10:20.690Z,0.90
2019-03-16T08:12:48.734Z,1.30
2019-03-16T08:15:16.793Z,0.97
2019-03-16T08:17:44.826Z,0.87
2019-03-16T08:20:12.870Z,1.70
2019-03-16T08:22:41.072Z,0.93
2019-03-16T08:25:09.277Z,1.10
2019-03-16T08:27:37.351Z,0.90
2019-03-16T08:30:06.850Z,2.60
2019-03-16T08:32:34.946Z,1.00
2019-03-16T08:35:03.073Z,1.10
2019-03-16T08:37:31.105Z,4.10
2019-03-16T08:39:59.165Z,0.97
2019-03-16T08:42:27.217Z,1.00
2019-03-16T08:44:55.283Z,0.93
2019-03-16T08:47:23.340Z,1.00
2019-03-16T08:49:51.423Z,0.80
2019-03-16T08:52:19.457Z,0.83
2019-03-16T08:54:47.509Z,1.60
2019-03-16T08:57:15.564Z,0.87
2019-03-16T08:59:43.630Z,0.83
2019-03-16T09:02:11.682Z,0.90
2019-03-16T09:04:39.742Z,1.20
2019-03-16T09:07:07.863Z,1.00
2019-03-16T09:09:35.931Z,1.10
2019-03-16T09:12:04.146Z,1.40
2019-03-16T09:14:32.197Z,1.77
2019-03-16T09:17:00.262Z,1.90
2019-03-16T09:19:28.325Z,1.63
2019-03-16T09:21:56.378Z,1.60
2019-03-16T09:24:24.428Z,1.20
2019-03-16T09:26:52.461Z,1.33
2019-03-16T09:29:20.517Z,0.80
2019-03-16T09:31:48.578Z,1.00
2019-03-16T09:34:16.619Z,1.73
2019-03-16T09:36:44.671Z,0.60
2019-03-16T09:39:12.744Z,0.70
2019-03-16T09:41:40.781Z,0.60
2019-03-16T09:44:08.822Z,0.43
2019-03-16T09:46:36.893Z,0.37
2019-03-16T09:49:04.937Z,0.60
2019-03-16T09:51:35.218Z,0.57
2019-03-16T09:54:03.294Z,0.60
2019-03-16T09:56:31.326Z,0.50
2019-03-16T09:58:59.471Z,0.50
2019-03-16T10:01:27.542Z,0.70
2019-03-16T10:03:55.610Z,0.60
2019-03-16T10:06:23.666Z,0.70
2019-03-16T10:08:51.710Z,1.60
2019-03-16T10:11:19.766Z,0.50
2019-03-16T10:13:47.830Z,0.50
2019-03-16T10:16:15.883Z,0.57
2019-03-16T10:18:43.937Z,0.47
2019-03-16T10:21:11.998Z,0.50
2019-03-16T10:23:40.039Z,0.47
2019-03-16T10:26:08.126Z,0.37
2019-03-16T10:28:43.535Z,0.47
2019-03-16T10:31:06.000Z,0.40
2019-03-16T10:33:34.053Z,0.20
2019-03-16T10:36:02.736Z,0.40
2019-03-16T10:38:30.877Z,0.30
2019-03-16T10:40:58.925Z,0.40
2019-03-16T10:43:27.566Z,0.30
2019-03-16T10:45:55.620Z,0.33
2019-03-16T10:48:23.735Z,0.50
2019-03-16T10:50:51.786Z,0.33
2019-03-16T10:53:19.830Z,0.30
2019-03-16T10:55:47.885Z,0.30
2019-03-16T10:58:15.921Z,0.20
2019-03-16T11:00:43.966Z,0.50
2019-03-16T11:03:12.014Z,0.33
2019-03-16T11:05:40.073Z,0.30
2019-03-16T11:08:08.154Z,0.40
2019-03-16T11:10:36.204Z,0.40
2019-03-16T11:13:04.239Z,0.40
2019-03-16T11:15:32.310Z,0.20
2019-03-16T11:18:00.337Z,0.33
2019-03-16T11:20:28.418Z,0.50
2019-03-16T11:22:56.462Z,0.23
2019-03-16T11:25:24.513Z,0.30
2019-03-16T11:27:52.553Z,0.20
2019-03-16T11:30:20.609Z,0.30
2019-03-16T11:32:48.654Z,0.27
2019-03-16T11:35:16.689Z,0.20
2019-03-16T11:37:44.760Z,0.30
2019-03-16T11:40:14.173Z,0.33
2019-03-16T11:42:42.205Z,0.30
2019-03-16T11:45:10.862Z,0.20
2019-03-16T11:47:38.899Z,0.13
2019-03-16T11:50:10.354Z,0.30
2019-03-16T11:52:38.430Z,0.40
2019-03-16T11:55:12.442Z,0.47
2019-03-16T11:57:40.477Z,0.20
2019-03-16T12:00:10.074Z,0.13
2019-03-16T12:02:38.130Z,0.20
2019-03-16T12:05:07.750Z,0.30
2019-03-16T12:07:35.794Z,0.30
2019-03-16T12:10:04.918Z,0.30
2019-03-16T12:12:33.010Z,0.23
2019-03-16T12:15:01.055Z,0.20
2019-03-16T12:17:29.090Z,0.17
2019-03-16T12:19:57.173Z,0.20
2019-03-16T12:22:25.226Z,0.30
2019-03-16T12:24:53.291Z,0.20
2019-03-16T12:27:21.333Z,0.20
2019-03-16T12:29:49.395Z,0.23
2019-03-16T12:32:17.442Z,0.20
2019-03-16T12:34:45.486Z,0.30
2019-03-16T12:37:13.525Z,0.20
2019-03-16T12:39:41.562Z,0.20
2019-03-16T12:42:09.634Z,0.33
2019-03-16T12:44:37.671Z,0.10
2019-03-16T12:47:05.714Z,0.30
2019-03-16T12:49:33.770Z,0.20
2019-03-16T12:52:01.822Z,0.20
2019-03-16T12:54:29.898Z,0.30
2019-03-16T12:56:58.036Z,0.20
2019-03-16T12:59:26.072Z,0.20
2019-03-16T13:01:54.151Z,0.03
2019-03-16T13:04:22.347Z,0.30
2019-03-16T13:06:50.417Z,0.30
2019-03-16T13:09:18.457Z,0.50
2019-03-16T13:11:46.514Z,0.43
2019-03-16T13:14:14.579Z,0.80
2019-03-16T13:16:42.606Z,0.60
2019-03-16T13:19:12.381Z,0.93
2019-03-16T13:21:43.613Z,0.70
2019-03-16T13:24:11.421Z,1.07
2019-03-16T13:26:40.519Z,0.70
2019-03-16T13:29:09.528Z,0.90
2019-03-16T13:31:37.566Z,0.50
2019-03-16T13:34:05.618Z,0.30
2019-03-16T13:36:33.676Z,0.40
2019-03-16T13:39:01.722Z,0.30
2019-03-16T13:41:29.758Z,0.80
2019-03-16T13:43:57.832Z,0.50
2019-03-16T13:46:25.895Z,0.40
2019-03-16T13:48:53.937Z,0.50
2019-03-16T13:51:22.786Z,0.63
2019-03-16T13:53:51.034Z,0.53
2019-03-16T13:56:19.090Z,0.57
2019-03-16T13:58:47.398Z,0.43
2019-03-16T14:01:15.442Z,0.50
2019-03-16T14:03:43.502Z,1.00
2019-03-16T14:06:11.722Z,0.60
2019-03-16T14:08:39.766Z,0.70
2019-03-16T14:11:07.810Z,1.10
2019-03-16T14:13:35.874Z,2.60
2019-03-16T14:16:04.031Z,1.43
2019-03-16T14:18:32.079Z,1.20
2019-03-16T14:21:00.163Z,1.10
2019-03-16T14:23:28.213Z,1.50
2019-03-16T14:25:56.249Z,0.90
2019-03-16T14:28:24.470Z,1.30
2019-03-16T14:30:52.807Z,1.40
2019-03-16T14:33:20.860Z,1.53
2019-03-16T14:35:48.906Z,1.43
2019-03-16T14:38:16.961Z,0.87
2019-03-16T14:40:45.042Z,1.10
2019-03-16T14:43:13.091Z,1.17
2019-03-16T14:45:41.137Z,1.40
2019-03-16T14:48:09.201Z,1.23
2019-03-16T14:50:37.266Z,1.10
2019-03-16T14:53:05.322Z,1.40
2019-03-16T14:55:33.459Z,1.23
2019-03-16T14:58:01.507Z,1.13
2019-03-16T15:00:38.311Z,1.27
2019-03-16T15:02:59.338Z,1.20
2019-03-16T15:05:27.490Z,1.10
2019-03-16T15:07:55.570Z,1.27
2019-03-16T15:10:23.626Z,0.90
2019-03-16T15:12:51.663Z,0.83
2019-03-16T15:15:20.310Z,1.03
2019-03-16T15:17:48.340Z,1.00
2019-03-16T15:20:16.409Z,1.10
2019-03-16T15:22:44.433Z,1.03
2019-03-16T15:25:12.838Z,0.97
2019-03-16T15:27:40.878Z,0.80
2019-03-16T15:30:10.482Z,1.17
2019-03-16T15:32:38.533Z,0.83
2019-03-16T15:35:07.718Z,0.90
2019-03-16T15:37:35.826Z,0.90
2019-03-16T15:40:04.847Z,1.03
2019-03-16T15:42:32.887Z,1.00
2019-03-16T15:45:01.034Z,0.90
2019-03-16T15:47:30.110Z,0.83
2019-03-16T15:49:58.622Z,1.10
2019-03-16T15:52:26.785Z,0.77
2019-03-16T15:54:54.806Z,1.13
2019-03-16T15:57:22.847Z,0.90
2019-03-16T15:59:50.906Z,0.93
2019-03-16T16:02:18.963Z,2.70
2019-03-16T16:04:47.016Z,0.87
2019-03-16T16:07:15.050Z,0.93
2019-03-16T16:09:43.102Z,0.80
2019-03-16T16:12:11.152Z,0.90
2019-03-16T16:14:39.209Z,0.83
2019-03-16T16:17:07.524Z,0.90
2019-03-16T16:19:35.536Z,0.90
2019-03-16T16:22:03.691Z,0.73
2019-03-16T16:24:31.742Z,0.70
2019-03-16T16:26:59.773Z,0.87
2019-03-16T16:29:27.843Z,0.87
2019-03-16T16:31:55.893Z,1.00
2019-03-16T16:34:23.925Z,1.10
2019-03-16T16:36:51.972Z,0.90
2019-03-16T16:39:20.014Z,0.80
2019-03-16T16:41:48.059Z,1.07
2019-03-16T16:44:16.117Z,0.90
2019-03-16T16:46:44.162Z,0.73
2019-03-16T16:49:12.207Z,0.80
2019-03-16T16:51:44.697Z,0.90
2019-03-16T16:54:12.723Z,0.80
2019-03-16T16:56:40.798Z,0.90
2019-03-16T16:59:08.862Z,0.90
2019-03-16T17:01:36.899Z,0.70
2019-03-16T17:04:05.006Z,1.23
2019-03-16T17:06:33.086Z,0.83
2019-03-16T17:09:01.130Z,0.70
2019-03-16T17:11:29.197Z,0.70
2019-03-16T17:13:57.248Z,0.90
2019-03-16T17:16:25.290Z,1.00
2019-03-16T17:18:54.338Z,1.00
2019-03-16T17:21:22.471Z,1.43
2019-03-16T17:23:50.542Z,1.20
2019-03-16T17:26:18.587Z,1.17
2019-03-16T17:28:46.630Z,1.00
2019-03-16T17:31:14.684Z,1.23
2019-03-16T17:33:42.734Z,1.27
2019-03-16T17:36:10.805Z,1.13
2019-03-16T17:38:38.846Z,1.10
2019-03-16T17:41:06.893Z,1.07
2019-03-16T17:43:35.053Z,1.10
2019-03-16T17:46:03.132Z,1.20
2019-03-16T17:48:31.224Z,1.83
2019-03-16T17:50:59.274Z,1.10
2019-03-16T17:53:27.317Z,1.20
2019-03-16T17:55:55.367Z,1.03
2019-03-16T17:58:23.406Z,1.20
2019-03-16T18:00:51.488Z,1.00
2019-03-16T18:03:19.530Z,1.10
2019-03-16T18:05:47.573Z,1.23
2019-03-16T18:08:15.614Z,0.97
2019-03-16T18:10:43.667Z,1.00
2019-03-16T18:13:11.707Z,1.20
2019-03-16T18:15:39.770Z,1.03
2019-03-16T18:18:07.807Z,1.07
2019-03-16T18:20:35.854Z,1.03
2019-03-16T18:23:03.910Z,1.00
2019-03-16T18:25:31.946Z,0.83
2019-03-16T18:27:59.998Z,0.90
2019-03-16T18:30:28.043Z,1.03
2019-03-16T18:32:56.094Z,1.13
2019-03-16T18:35:24.141Z,0.67
2019-03-16T18:37:52.176Z,1.00
2019-03-16T18:40:23.253Z,1.37
2019-03-16T18:42:51.294Z,0.90
2019-03-16T18:45:24.779Z,1.00
2019-03-16T18:47:52.818Z,1.10
2019-03-16T18:50:20.866Z,0.97
2019-03-16T18:52:48.908Z,0.87
2019-03-16T18:55:16.983Z,1.00
2019-03-16T18:57:45.063Z,1.53
2019-03-16T19:00:16.676Z,0.90
2019-03-16T19:02:44.805Z,1.33
2019-03-16T19:05:12.914Z,1.20
2019-03-16T19:07:40.956Z,1.10
2019-03-16T19:10:10.079Z,1.20
2019-03-16T19:12:38.122Z,1.20
2019-03-16T19:15:08.021Z,1.17
2019-03-16T19:17:36.079Z,1.60
2019-03-16T19:20:05.682Z,1.43
2019-03-16T19:22:33.782Z,1.20
2019-03-16T19:25:01.826Z,1.40
2019-03-16T19:27:29.903Z,1.10
2019-03-16T19:29:57.955Z,1.17
2019-03-16T19:32:33.512Z,1.37
2019-03-16T19:34:55.757Z,0.90
2019-03-16T19:37:23.809Z,1.10
2019-03-16T19:39:51.867Z,1.00
2019-03-16T19:42:19.939Z,1.00
2019-03-16T19:44:48.010Z,0.80
2019-03-16T19:47:16.054Z,1.20
2019-03-16T19:49:44.115Z,0.90
2019-03-16T19:52:12.158Z,0.87
2019-03-16T19:54:40.217Z,0.80
2019-03-16T19:57:15.930Z,0.70
2019-03-16T19:59:38.020Z,0.73
2019-03-16T20:02:06.098Z,1.07
2019-03-16T20:04:36.217Z,0.67
2019-03-16T20:07:04.023Z,0.63
2019-03-16T20:09:32.082Z,0.63
2019-03-16T20:12:00.174Z,0.70
2019-03-16T20:14:28.271Z,0.80
2019-03-16T20:16:56.314Z,0.60
2019-03-16T20:19:24.361Z,0.90
2019-03-16T20:21:52.414Z,0.73
2019-03-16T20:24:20.482Z,0.90
2019-03-16T20:26:48.534Z,1.10
2019-03-16T20:29:16.946Z,0.90
2019-03-16T20:31:47.030Z,0.80
2019-03-16T20:34:14.768Z,0.90
2019-03-16T20:36:42.814Z,1.17
2019-03-16T20:39:10.855Z,1.30
2019-03-16T20:41:38.916Z,1.10
2019-03-16T20:44:07.095Z,1.10
2019-03-16T20:46:35.189Z,1.03
2019-03-16T20:49:04.089Z,0.90
2019-03-16T20:51:34.118Z,1.03
2019-03-16T20:54:02.126Z,0.93
2019-03-16T20:56:30.166Z,1.10
2019-03-16T20:58:58.221Z,1.10
2019-03-16T21:01:26.398Z,0.83
2019-03-16T21:03:54.576Z,1.07
2019-03-16T21:06:22.642Z,1.17
2019-03-16T21:09:02.481Z,1.10
2019-03-16T21:11:20.722Z,1.00
2019-03-16T21:13:48.770Z,1.33
2019-03-16T21:16:16.818Z,1.10
2019-03-16T21:18:44.874Z,1.10
2019-03-16T21:21:12.926Z,1.30
2019-03-16T21:23:40.970Z,1.10
2019-03-16T21:26:09.019Z,1.57
2019-03-16T21:28:37.055Z,1.10
2019-03-16T21:31:05.562Z,1.10
2019-03-16T21:33:33.662Z,1.10
2019-03-16T21:36:01.727Z,1.00
2019-03-16T21:38:29.761Z,1.27
2019-03-16T21:40:57.810Z,1.37
2019-03-16T21:43:25.847Z,1.30
2019-03-16T21:45:53.906Z,1.20
2019-03-16T21:48:21.958Z,1.33
2019-03-16T21:50:50.135Z,1.20
2019-03-16T21:53:18.174Z,1.00
2019-03-16T21:55:46.217Z,1.10
2019-03-16T21:58:14.278Z,1.00
2019-03-16T22:00:42.321Z,1.37
2019-03-16T22:03:10.367Z,1.30
2019-03-16T22:05:38.458Z,1.13
2019-03-16T22:08:06.512Z,1.50
2019-03-16T22:10:34.614Z,1.43
2019-03-16T22:13:02.710Z,1.60
2019-03-16T22:15:30.753Z,1.50
2019-03-16T22:17:58.839Z,1.43
2019-03-16T22:20:26.894Z,1.60
2019-03-16T22:22:54.934Z,1.53
2019-03-16T22:25:23.005Z,1.23
2019-03-16T22:27:51.911Z,1.20
2019-03-16T22:30:20.209Z,1.40
2019-03-16T22:32:48.254Z,1.40
2019-03-16T22:35:16.298Z,1.30
2019-03-16T22:37:44.346Z,1.50
2019-03-16T22:40:12.765Z,1.87
2019-03-16T22:42:40.883Z,1.50
2019-03-16T22:45:09.991Z,1.50
2019-03-16T22:47:38.081Z,1.60
2019-03-16T22:50:15.822Z,1.40
2019-03-16T22:52:43.884Z,1.20
2019-03-16T22:55:11.950Z,1.47
2019-03-16T22:57:40.007Z,1.37
2019-03-16T23:00:19.174Z,1.67
2019-03-16T23:02:47.209Z,2.03
2019-03-16T23:05:15.263Z,1.60
2019-03-16T23:07:43.321Z,1.50
2019-03-16T23:10:11.732Z,1.37
2019-03-16T23:12:39.767Z,1.50
2019-03-16T23:15:08.598Z,1.30
2019-03-16T23:17:36.650Z,1.43
2019-03-16T23:20:05.255Z,1.60
2019-03-16T23:22:33.318Z,1.60
2019-03-16T23:25:01.531Z,1.27
2019-03-16T23:27:29.574Z,1.20
2019-03-16T23:29:57.615Z,1.67
2019-03-16T23:32:25.650Z,1.40
2019-03-16T23:34:53.722Z,1.50
2019-03-16T23:37:21.753Z,1.63
2019-03-16T23:39:49.805Z,1.37
2019-03-16T23:42:17.846Z,2.00
2019-03-16T23:44:45.890Z,1.50
2019-03-16T23:47:13.986Z,1.30
2019-03-16T23:49:42.023Z,1.40
2019-03-16T23:52:10.070Z,1.10
2019-03-16T23:54:38.137Z,1.67
2019-03-16T23:57:06.167Z,1.27
2019-03-16T23:59:34.362Z,1.60
